createdAt,value
2018-12-12T00:00:32.342Z,1018.51
2018-12-12T00:01:32.346Z,1018.44
2018-12-12T00:02:32.347Z,1018.44
2018-12-12T00:03:32.354Z,1018.36
2018-12-12T00:04:32.356Z,1018.41
2018-12-12T00:05:32.368Z,1018.37
2018-12-12T00:06:32.364Z,1018.39
2018-12-12T00:07:32.368Z,1018.38
2018-12-12T00:08:32.376Z,1018.38
2018-12-12T00:09:32.368Z,1018.38
2018-12-12T00:10:32.386Z,1018.39
2018-12-12T00:11:32.384Z,1018.38
2018-12-12T00:12:32.398Z,1018.38
2018-12-12T00:13:32.394Z,1018.38
2018-12-12T00:14:32.400Z,1018.41
2018-12-12T00:15:32.404Z,1018.44
2018-12-12T00:16:32.396Z,1018.42
2018-12-12T00:17:32.412Z,1018.42
2018-12-12T00:18:32.422Z,1018.44
2018-12-12T00:19:32.422Z,1018.43
2018-12-12T00:20:32.432Z,1018.42
2018-12-12T00:21:32.431Z,1018.43
2018-12-12T00:22:32.432Z,1018.44
2018-12-12T00:23:32.434Z,1018.45
2018-12-12T00:24:32.440Z,1018.45
2018-12-12T00:25:32.442Z,1018.44
2018-12-12T00:26:32.450Z,1018.43
2018-12-12T00:27:32.450Z,1018.45
2018-12-12T00:28:32.460Z,1018.49
2018-12-12T00:29:32.458Z,1018.51
2018-12-12T00:30:32.470Z,1018.48
2018-12-12T00:31:32.469Z,1018.56
2018-12-12T00:32:32.475Z,1018.48
2018-12-12T00:33:32.476Z,1018.47
2018-12-12T00:34:32.478Z,1018.48
2018-12-12T00:35:32.493Z,1018.46
2018-12-12T00:36:32.492Z,1018.44
2018-12-12T00:37:32.492Z,1018.42
2018-12-12T00:38:32.497Z,1018.41
2018-12-12T00:39:32.504Z,1018.40
2018-12-12T00:40:32.506Z,1018.37
2018-12-12T00:41:32.518Z,1018.38
2018-12-12T00:42:32.513Z,1018.39
2018-12-12T00:43:32.521Z,1018.38
2018-12-12T00:44:32.527Z,1018.33
2018-12-12T00:45:32.529Z,1018.37
2018-12-12T00:46:32.529Z,1018.35
2018-12-12T00:47:32.538Z,1018.31
2018-12-12T00:48:32.537Z,1018.31
2018-12-12T00:49:32.565Z,1018.29
2018-12-12T00:50:32.544Z,1018.35
2018-12-12T00:51:32.559Z,1018.30
2018-12-12T00:52:32.555Z,1018.29
2018-12-12T00:53:32.563Z,1018.29
2018-12-12T00:54:32.563Z,1018.27
2018-12-12T00:55:32.569Z,1018.24
2018-12-12T00:56:32.571Z,1018.24
2018-12-12T00:57:32.576Z,1018.28
2018-12-12T00:58:32.579Z,1018.28
2018-12-12T00:59:32.581Z,1018.26
2018-12-12T01:00:32.589Z,1018.28
2018-12-12T01:01:32.594Z,1018.30
2018-12-12T01:02:32.601Z,1018.29
2018-12-12T01:03:32.601Z,1018.27
2018-12-12T01:04:32.619Z,1018.31
2018-12-12T01:05:32.607Z,1018.30
2018-12-12T01:06:32.611Z,1018.33
2018-12-12T01:07:32.624Z,1018.35
2018-12-12T01:08:32.623Z,1018.32
2018-12-12T01:09:32.627Z,1018.31
2018-12-12T01:10:32.627Z,1018.31
2018-12-12T01:11:32.633Z,1018.32
2018-12-12T01:12:32.635Z,1018.33
2018-12-12T01:13:32.647Z,1018.36
2018-12-12T01:14:32.645Z,1018.38
2018-12-12T01:15:32.647Z,1018.38
2018-12-12T01:16:32.655Z,1018.42
2018-12-12T01:17:32.670Z,1018.45
2018-12-12T01:18:32.663Z,1018.44
2018-12-12T01:19:32.682Z,1018.45
2018-12-12T01:20:32.675Z,1018.43
2018-12-12T01:21:32.675Z,1018.46
2018-12-12T01:22:32.679Z,1018.46
2018-12-12T01:23:32.760Z,1018.44
2018-12-12T01:24:32.690Z,1018.48
2018-12-12T01:25:32.689Z,1018.49
2018-12-12T01:26:32.704Z,1018.51
2018-12-12T01:27:32.707Z,1018.50
2018-12-12T01:28:32.703Z,1018.56
2018-12-12T01:29:32.711Z,1018.54
2018-12-12T01:30:32.712Z,1018.55
2018-12-12T01:31:32.719Z,1018.54
2018-12-12T01:32:32.729Z,1018.56
2018-12-12T01:33:32.729Z,1018.57
2018-12-12T01:34:32.729Z,1018.55
2018-12-12T01:35:32.732Z,1018.57
2018-12-12T01:36:32.743Z,1018.53
2018-12-12T01:37:32.740Z,1018.52
2018-12-12T01:38:32.747Z,1018.55
2018-12-12T01:39:32.748Z,1018.52
2018-12-12T01:40:32.760Z,1018.50
2018-12-12T01:41:32.761Z,1018.50
2018-12-12T01:42:32.763Z,1018.51
2018-12-12T01:43:32.766Z,1018.47
2018-12-12T01:44:32.770Z,1018.49
2018-12-12T01:45:32.780Z,1018.48
2018-12-12T01:46:32.774Z,1018.48
2018-12-12T01:47:32.790Z,1018.49
2018-12-12T01:48:32.793Z,1018.52
2018-12-12T01:49:32.794Z,1018.55
2018-12-12T01:50:32.796Z,1018.50
2018-12-12T01:51:32.805Z,1018.49
2018-12-12T01:52:32.840Z,1018.51
2018-12-12T01:53:33.156Z,1018.53
2018-12-12T01:54:32.815Z,1018.52
2018-12-12T01:55:32.814Z,1018.56
2018-12-12T01:56:32.823Z,1018.54
2018-12-12T01:57:32.824Z,1018.57
2018-12-12T01:58:32.833Z,1018.60
2018-12-12T01:59:32.837Z,1018.61
2018-12-12T02:00:32.843Z,1018.61
2018-12-12T02:01:32.840Z,1018.62
2018-12-12T02:02:32.853Z,1018.59
2018-12-12T02:03:32.857Z,1018.62
2018-12-12T02:04:32.857Z,1018.63
2018-12-12T02:05:32.847Z,1018.66
2018-12-12T02:06:32.861Z,1018.66
2018-12-12T02:07:32.862Z,1018.69
2018-12-12T02:08:32.878Z,1018.69
2018-12-12T02:09:32.869Z,1018.68
2018-12-12T02:10:32.878Z,1018.68
2018-12-12T02:11:32.882Z,1018.73
2018-12-12T02:12:32.895Z,1018.74
2018-12-12T02:13:32.889Z,1018.75
2018-12-12T02:14:32.900Z,1018.70
2018-12-12T02:15:32.901Z,1018.72
2018-12-12T02:16:32.902Z,1018.73
2018-12-12T02:17:32.913Z,1018.71
2018-12-12T02:18:32.912Z,1018.69
2018-12-12T02:19:32.927Z,1018.75
2018-12-12T02:20:32.925Z,1018.74
2018-12-12T02:21:32.925Z,1018.74
2018-12-12T02:22:32.927Z,1018.72
2018-12-12T02:23:32.940Z,1018.72
2018-12-12T02:24:32.940Z,1018.73
2018-12-12T02:25:32.944Z,1018.71
2018-12-12T02:26:32.946Z,1018.73
2018-12-12T02:27:32.950Z,1018.75
2018-12-12T02:28:32.958Z,1018.72
2018-12-12T02:29:32.958Z,1018.73
2018-12-12T02:30:32.964Z,1018.73
2018-12-12T02:31:32.972Z,1018.73
2018-12-12T02:32:32.977Z,1018.76
2018-12-12T02:33:32.977Z,1018.76
2018-12-12T02:34:32.984Z,1018.75
2018-12-12T02:35:32.987Z,1018.74
2018-12-12T02:36:32.987Z,1018.74
2018-12-12T02:37:32.994Z,1018.72
2018-12-12T02:38:32.996Z,1018.74
2018-12-12T02:39:33.004Z,1018.73
2018-12-12T02:40:33.006Z,1018.73
2018-12-12T02:41:33.008Z,1018.71
2018-12-12T02:42:33.014Z,1018.71
2018-12-12T02:43:33.030Z,1018.67
2018-12-12T02:44:33.024Z,1018.66
2018-12-12T02:45:33.023Z,1018.67
2018-12-12T02:46:33.028Z,1018.66
2018-12-12T02:47:33.033Z,1018.70
2018-12-12T02:48:33.044Z,1018.72
2018-12-12T02:49:33.039Z,1018.71
2018-12-12T02:50:33.041Z,1018.74
2018-12-12T02:51:33.074Z,1018.75
2018-12-12T02:52:33.053Z,1018.74
2018-12-12T02:53:33.058Z,1018.71
2018-12-12T02:54:33.061Z,1018.75
2018-12-12T02:55:33.066Z,1018.71
2018-12-12T02:56:33.077Z,1018.74
2018-12-12T02:57:33.093Z,1018.70
2018-12-12T02:58:33.081Z,1018.71
2018-12-12T02:59:33.094Z,1018.71
2018-12-12T03:00:33.093Z,1018.71
2018-12-12T03:01:33.089Z,1018.70
2018-12-12T03:02:33.096Z,1018.73
2018-12-12T03:03:33.104Z,1018.72
2018-12-12T03:04:33.104Z,1018.72
2018-12-12T03:05:33.105Z,1018.73
2018-12-12T03:06:33.113Z,1018.74
2018-12-12T03:07:33.137Z,1018.75
2018-12-12T03:08:33.122Z,1018.76
2018-12-12T03:09:33.127Z,1018.78
2018-12-12T03:10:33.130Z,1018.79
2018-12-12T03:11:33.134Z,1018.80
2018-12-12T03:12:33.139Z,1018.81
2018-12-12T03:13:33.144Z,1018.82
2018-12-12T03:14:33.148Z,1018.83
2018-12-12T03:15:33.156Z,1018.82
2018-12-12T03:16:33.162Z,1018.83
2018-12-12T03:17:33.163Z,1018.81
2018-12-12T03:18:33.162Z,1018.82
2018-12-12T03:19:33.167Z,1018.86
2018-12-12T03:20:33.172Z,1018.83
2018-12-12T03:21:33.176Z,1018.84
2018-12-12T03:22:33.182Z,1018.82
2018-12-12T03:23:33.176Z,1018.82
2018-12-12T03:24:33.188Z,1018.85
2018-12-12T03:25:33.192Z,1018.80
2018-12-12T03:26:33.192Z,1018.82
2018-12-12T03:27:33.197Z,1018.84
2018-12-12T03:28:33.210Z,1018.85
2018-12-12T03:29:33.211Z,1018.80
2018-12-12T03:30:33.217Z,1018.84
2018-12-12T03:31:33.224Z,1018.81
2018-12-12T03:32:33.230Z,1018.80
2018-12-12T03:33:33.224Z,1018.80
2018-12-12T03:34:33.228Z,1018.81
2018-12-12T03:35:33.233Z,1018.78
2018-12-12T03:36:33.235Z,1018.83
2018-12-12T03:37:33.239Z,1018.80
2018-12-12T03:38:33.246Z,1018.81
2018-12-12T03:39:33.248Z,1018.80
2018-12-12T03:40:33.255Z,1018.76
2018-12-12T03:41:33.261Z,1018.75
2018-12-12T03:42:33.259Z,1018.74
2018-12-12T03:43:33.265Z,1018.73
2018-12-12T03:44:33.280Z,1018.75
2018-12-12T03:45:33.278Z,1018.73
2018-12-12T03:46:33.277Z,1018.74
2018-12-12T03:47:33.290Z,1018.73
2018-12-12T03:48:33.289Z,1018.74
2018-12-12T03:49:33.295Z,1018.74
2018-12-12T03:50:33.297Z,1018.76
2018-12-12T03:51:33.301Z,1018.77
2018-12-12T03:52:33.305Z,1018.76
2018-12-12T03:53:33.305Z,1018.77
2018-12-12T03:54:33.317Z,1018.76
2018-12-12T03:55:33.316Z,1018.78
2018-12-12T03:56:33.321Z,1018.75
2018-12-12T03:57:33.328Z,1018.73
2018-12-12T03:58:33.330Z,1018.75
2018-12-12T03:59:33.334Z,1018.70
2018-12-12T04:00:33.337Z,1018.72
2018-12-12T04:01:33.365Z,1018.69
2018-12-12T04:02:33.344Z,1018.72
2018-12-12T04:03:33.350Z,1018.73
2018-12-12T04:04:33.363Z,1018.77
2018-12-12T04:05:33.359Z,1018.75
2018-12-12T04:06:33.366Z,1018.74
2018-12-12T04:07:33.359Z,1018.74
2018-12-12T04:08:33.370Z,1018.75
2018-12-12T04:09:33.376Z,1018.76
2018-12-12T04:10:33.426Z,1018.76
2018-12-12T04:11:33.380Z,1018.82
2018-12-12T04:12:33.389Z,1018.81
2018-12-12T04:13:33.388Z,1018.81
2018-12-12T04:14:33.405Z,1018.84
2018-12-12T04:15:33.401Z,1018.82
2018-12-12T04:16:33.429Z,1018.84
2018-12-12T04:17:33.408Z,1018.81
2018-12-12T04:18:33.408Z,1018.81
2018-12-12T04:19:33.418Z,1018.81
2018-12-12T04:20:33.430Z,1018.81
2018-12-12T04:21:33.425Z,1018.82
2018-12-12T04:22:33.436Z,1018.82
2018-12-12T04:23:33.435Z,1018.84
2018-12-12T04:24:33.435Z,1018.81
2018-12-12T04:25:33.437Z,1018.78
2018-12-12T04:26:33.450Z,1018.81
2018-12-12T04:27:33.445Z,1018.79
2018-12-12T04:28:33.453Z,1018.74
2018-12-12T04:29:33.463Z,1018.76
2018-12-12T04:30:33.462Z,1018.78
2018-12-12T04:31:33.466Z,1018.75
2018-12-12T04:32:33.463Z,1018.76
2018-12-12T04:33:33.473Z,1018.82
2018-12-12T04:34:33.469Z,1018.80
2018-12-12T04:35:33.471Z,1018.76
2018-12-12T04:36:33.493Z,1018.76
2018-12-12T04:37:33.477Z,1018.73
2018-12-12T04:38:33.489Z,1018.69
2018-12-12T04:39:33.485Z,1018.71
2018-12-12T04:40:33.497Z,1018.71
2018-12-12T04:41:33.496Z,1018.72
2018-12-12T04:42:33.511Z,1018.73
2018-12-12T04:43:33.501Z,1018.72
2018-12-12T04:44:33.515Z,1018.74
2018-12-12T04:45:34.009Z,1018.70
2018-12-12T04:46:33.531Z,1018.74
2018-12-12T04:47:33.525Z,1018.72
2018-12-12T04:48:33.532Z,1018.70
2018-12-12T04:49:34.509Z,1018.68
2018-12-12T04:50:33.544Z,1018.68
2018-12-12T04:51:34.513Z,1018.69
2018-12-12T04:52:33.555Z,1018.69
2018-12-12T04:53:33.558Z,1018.69
2018-12-12T04:54:33.575Z,1018.69
2018-12-12T04:55:33.563Z,1018.72
2018-12-12T04:56:33.567Z,1018.70
2018-12-12T04:57:33.577Z,1018.69
2018-12-12T04:58:33.571Z,1018.68
2018-12-12T04:59:33.590Z,1018.67
2018-12-12T05:00:33.581Z,1018.69
2018-12-12T05:01:34.513Z,1018.66
2018-12-12T05:02:33.591Z,1018.65
2018-12-12T05:03:33.599Z,1018.66
2018-12-12T05:04:33.611Z,1018.64
2018-12-12T05:05:33.601Z,1018.67
2018-12-12T05:06:33.605Z,1018.66
2018-12-12T05:07:33.702Z,1018.70
2018-12-12T05:08:33.614Z,1018.71
2018-12-12T05:09:33.682Z,1018.70
2018-12-12T05:10:33.620Z,1018.70
2018-12-12T05:11:33.662Z,1018.75
2018-12-12T05:12:33.632Z,1018.76
2018-12-12T05:13:33.638Z,1018.73
2018-12-12T05:14:33.632Z,1018.77
2018-12-12T05:15:33.643Z,1018.72
2018-12-12T05:16:33.662Z,1018.74
2018-12-12T05:17:33.704Z,1018.76
2018-12-12T05:18:33.667Z,1018.78
2018-12-12T05:19:33.674Z,1018.81
2018-12-12T05:20:33.662Z,1018.79
2018-12-12T05:21:33.670Z,1018.83
2018-12-12T05:22:33.672Z,1018.81
2018-12-12T05:23:33.688Z,1018.82
2018-12-12T05:24:33.698Z,1018.84
2018-12-12T05:25:33.700Z,1018.82
2018-12-12T05:26:33.692Z,1018.81
2018-12-12T05:27:33.700Z,1018.83
2018-12-12T05:28:33.704Z,1018.80
2018-12-12T05:29:33.725Z,1018.79
2018-12-12T05:30:33.706Z,1018.82
2018-12-12T05:31:33.700Z,1018.81
2018-12-12T05:32:33.712Z,1018.81
2018-12-12T05:33:33.740Z,1018.79
2018-12-12T05:34:33.722Z,1018.79
2018-12-12T05:35:33.741Z,1018.80
2018-12-12T05:36:33.730Z,1018.79
2018-12-12T05:37:33.738Z,1018.80
2018-12-12T05:38:33.740Z,1018.80
2018-12-12T05:39:33.748Z,1018.83
2018-12-12T05:40:33.746Z,1018.80
2018-12-12T05:41:33.754Z,1018.81
2018-12-12T05:42:33.755Z,1018.82
2018-12-12T05:43:33.752Z,1018.83
2018-12-12T05:44:33.766Z,1018.82
2018-12-12T05:45:33.764Z,1018.81
2018-12-12T05:46:33.772Z,1018.84
2018-12-12T05:47:33.777Z,1018.83
2018-12-12T05:48:33.778Z,1018.83
2018-12-12T05:49:34.327Z,1018.80
2018-12-12T05:50:33.784Z,1018.81
2018-12-12T05:51:33.789Z,1018.82
2018-12-12T05:52:33.792Z,1018.81
2018-12-12T05:53:33.811Z,1018.79
2018-12-12T05:54:33.808Z,1018.81
2018-12-12T05:55:33.807Z,1018.85
2018-12-12T05:56:33.824Z,1018.82
2018-12-12T05:57:33.811Z,1018.87
2018-12-12T05:58:33.832Z,1018.85
2018-12-12T05:59:33.818Z,1018.86
2018-12-12T06:00:33.828Z,1018.88
2018-12-12T06:01:33.924Z,1018.89
2018-12-12T06:02:33.835Z,1018.86
2018-12-12T06:03:33.877Z,1018.87
2018-12-12T06:04:33.839Z,1018.89
2018-12-12T06:05:33.847Z,1018.88
2018-12-12T06:06:33.853Z,1018.87
2018-12-12T06:07:33.853Z,1018.84
2018-12-12T06:08:33.863Z,1018.81
2018-12-12T06:09:33.865Z,1018.85
2018-12-12T06:10:33.869Z,1018.84
2018-12-12T06:11:33.873Z,1018.85
2018-12-12T06:12:33.877Z,1018.87
2018-12-12T06:13:33.879Z,1018.89
2018-12-12T06:14:33.889Z,1018.86
2018-12-12T06:15:33.885Z,1018.88
2018-12-12T06:16:33.891Z,1018.91
2018-12-12T06:17:33.895Z,1018.93
2018-12-12T06:18:33.913Z,1018.96
2018-12-12T06:19:33.902Z,1018.95
2018-12-12T06:20:33.911Z,1018.97
2018-12-12T06:21:33.909Z,1018.97
2018-12-12T06:22:37.566Z,1018.97
2018-12-12T06:23:33.922Z,1018.99
2018-12-12T06:24:33.920Z,1018.99
2018-12-12T06:25:33.927Z,1019.03
2018-12-12T06:26:37.233Z,1019.05
2018-12-12T06:27:33.942Z,1019.02
2018-12-12T06:28:33.945Z,1019.05
2018-12-12T06:29:33.942Z,1019.03
2018-12-12T06:30:33.948Z,1019.04
2018-12-12T06:31:33.952Z,1018.99
2018-12-12T06:32:33.958Z,1019.02
2018-12-12T06:33:33.963Z,1019.02
2018-12-12T06:34:33.969Z,1019.00
2018-12-12T06:35:33.977Z,1019.00
2018-12-12T06:36:33.976Z,1019.01
2018-12-12T06:37:33.976Z,1018.98
2018-12-12T06:38:33.982Z,1019.01
2018-12-12T06:39:33.986Z,1019.04
2018-12-12T06:40:33.988Z,1019.02
2018-12-12T06:41:33.996Z,1019.07
2018-12-12T06:42:34.004Z,1019.07
2018-12-12T06:43:33.998Z,1019.07
2018-12-12T06:44:34.002Z,1019.11
2018-12-12T06:45:34.005Z,1019.16
2018-12-12T06:46:34.018Z,1019.14
2018-12-12T06:47:34.014Z,1019.13
2018-12-12T06:48:34.022Z,1019.15
2018-12-12T06:49:34.026Z,1019.18
2018-12-12T06:50:34.024Z,1019.19
2018-12-12T06:51:34.034Z,1019.18
2018-12-12T06:52:34.048Z,1019.19
2018-12-12T06:53:34.046Z,1019.16
2018-12-12T06:54:34.041Z,1019.19
2018-12-12T06:55:34.052Z,1019.18
2018-12-12T06:56:34.054Z,1019.19
2018-12-12T06:57:34.053Z,1019.21
2018-12-12T06:58:34.066Z,1019.22
2018-12-12T06:59:34.060Z,1019.23
2018-12-12T07:00:34.058Z,1019.24
2018-12-12T07:01:34.072Z,1019.23
2018-12-12T07:02:34.075Z,1019.25
2018-12-12T07:03:34.085Z,1019.26
2018-12-12T07:04:34.070Z,1019.22
2018-12-12T07:05:34.091Z,1019.26
2018-12-12T07:06:35.063Z,1019.27
2018-12-12T07:07:34.105Z,1019.27
2018-12-12T07:08:34.205Z,1019.25
2018-12-12T07:09:34.100Z,1019.27
2018-12-12T07:10:34.116Z,1019.26
2018-12-12T07:11:34.112Z,1019.28
2018-12-12T07:12:34.111Z,1019.24
2018-12-12T07:13:35.791Z,1019.26
2018-12-12T07:14:34.129Z,1019.29
2018-12-12T07:15:34.129Z,1019.24
2018-12-12T07:16:34.147Z,1019.26
2018-12-12T07:17:34.135Z,1019.24
2018-12-12T07:18:34.227Z,1019.21
2018-12-12T07:19:34.145Z,1019.27
2018-12-12T07:20:34.155Z,1019.27
2018-12-12T07:21:34.148Z,1019.24
2018-12-12T07:22:34.157Z,1019.26
2018-12-12T07:23:34.157Z,1019.25
2018-12-12T07:24:34.167Z,1019.21
2018-12-12T07:25:34.165Z,1019.20
2018-12-12T07:26:34.172Z,1019.21
2018-12-12T07:27:34.173Z,1019.23
2018-12-12T07:28:35.070Z,1019.22
2018-12-12T07:29:34.179Z,1019.30
2018-12-12T07:30:34.190Z,1019.29
2018-12-12T07:31:34.190Z,1019.29
2018-12-12T07:32:34.207Z,1019.29
2018-12-12T07:33:34.193Z,1019.27
2018-12-12T07:34:34.203Z,1019.25
2018-12-12T07:35:34.201Z,1019.26
2018-12-12T07:36:34.218Z,1019.26
2018-12-12T07:37:34.213Z,1019.25
2018-12-12T07:38:35.076Z,1019.28
2018-12-12T07:39:34.218Z,1019.28
2018-12-12T07:40:34.233Z,1019.30
2018-12-12T07:41:34.231Z,1019.30
2018-12-12T07:42:34.232Z,1019.28
2018-12-12T07:43:34.245Z,1019.32
2018-12-12T07:44:34.232Z,1019.31
2018-12-12T07:45:34.240Z,1019.34
2018-12-12T07:46:34.252Z,1019.33
2018-12-12T07:47:34.249Z,1019.37
2018-12-12T07:48:34.283Z,1019.42
2018-12-12T07:49:34.261Z,1019.47
2018-12-12T07:50:34.333Z,1019.46
2018-12-12T07:51:34.264Z,1019.51
2018-12-12T07:52:34.313Z,1019.49
2018-12-12T07:53:34.277Z,1019.53
2018-12-12T07:54:34.281Z,1019.51
2018-12-12T07:55:34.289Z,1019.53
2018-12-12T07:56:34.292Z,1019.54
2018-12-12T07:57:34.433Z,1019.55
2018-12-12T07:58:34.299Z,1019.55
2018-12-12T07:59:34.295Z,1019.57
2018-12-12T08:00:34.309Z,1019.58
2018-12-12T08:01:34.305Z,1019.54
2018-12-12T08:02:34.306Z,1019.58
2018-12-12T08:03:34.315Z,1019.54
2018-12-12T08:04:34.314Z,1019.56
2018-12-12T08:05:34.316Z,1019.62
2018-12-12T08:06:34.362Z,1019.59
2018-12-12T08:07:34.324Z,1019.66
2018-12-12T08:08:34.374Z,1019.63
2018-12-12T08:09:35.799Z,1019.65
2018-12-12T08:10:34.341Z,1019.65
2018-12-12T08:11:34.342Z,1019.70
2018-12-12T08:12:34.349Z,1019.69
2018-12-12T08:13:34.351Z,1019.67
2018-12-12T08:14:34.356Z,1019.67
2018-12-12T08:15:34.747Z,1019.66
2018-12-12T08:16:34.358Z,1019.67
2018-12-12T08:17:34.368Z,1019.64
2018-12-12T08:18:34.427Z,1019.64
2018-12-12T08:19:34.367Z,1019.69
2018-12-12T08:20:34.404Z,1019.71
2018-12-12T08:21:34.380Z,1019.69
2018-12-12T08:22:34.380Z,1019.74
2018-12-12T08:23:34.390Z,1019.69
2018-12-12T08:24:34.411Z,1019.68
2018-12-12T08:25:34.407Z,1019.68
2018-12-12T08:26:34.394Z,1019.66
2018-12-12T08:27:34.398Z,1019.66
2018-12-12T08:28:34.400Z,1019.69
2018-12-12T08:29:34.409Z,1019.68
2018-12-12T08:30:34.412Z,1019.66
2018-12-12T08:31:34.419Z,1019.66
2018-12-12T08:32:34.416Z,1019.66
2018-12-12T08:33:34.423Z,1019.63
2018-12-12T08:34:34.427Z,1019.66
2018-12-12T08:35:34.428Z,1019.67
2018-12-12T08:36:34.428Z,1019.65
2018-12-12T08:37:34.437Z,1019.65
2018-12-12T08:38:34.438Z,1019.63
2018-12-12T08:39:34.453Z,1019.67
2018-12-12T08:40:34.452Z,1019.65
2018-12-12T08:41:34.455Z,1019.67
2018-12-12T08:42:34.456Z,1019.68
2018-12-12T08:43:34.482Z,1019.69
2018-12-12T08:44:34.462Z,1019.72
2018-12-12T08:45:34.468Z,1019.73
2018-12-12T08:46:34.480Z,1019.71
2018-12-12T08:47:34.474Z,1019.73
2018-12-12T08:48:34.475Z,1019.76
2018-12-12T08:49:34.483Z,1019.77
2018-12-12T08:50:34.492Z,1019.77
2018-12-12T08:51:34.491Z,1019.78
2018-12-12T08:52:34.503Z,1019.79
2018-12-12T08:53:34.495Z,1019.83
2018-12-12T08:54:34.500Z,1019.82
2018-12-12T08:55:34.499Z,1019.83
2018-12-12T08:56:34.509Z,1019.82
2018-12-12T08:57:34.513Z,1019.84
2018-12-12T08:58:34.529Z,1019.83
2018-12-12T08:59:34.519Z,1019.83
2018-12-12T09:00:34.518Z,1019.84
2018-12-12T09:01:34.527Z,1019.85
2018-12-12T09:02:34.531Z,1019.82
2018-12-12T09:03:34.528Z,1019.86
2018-12-12T09:04:34.543Z,1019.86
2018-12-12T09:05:34.540Z,1019.88
2018-12-12T09:06:34.540Z,1019.86
2018-12-12T09:07:34.547Z,1019.85
2018-12-12T09:08:34.559Z,1019.89
2018-12-12T09:09:34.559Z,1019.89
2018-12-12T09:10:34.564Z,1019.88
2018-12-12T09:11:34.564Z,1019.79
2018-12-12T09:12:34.569Z,1019.87
2018-12-12T09:13:34.571Z,1019.90
2018-12-12T09:14:34.578Z,1019.84
2018-12-12T09:15:34.579Z,1019.89
2018-12-12T09:16:34.591Z,1019.87
2018-12-12T09:17:34.589Z,1019.91
2018-12-12T09:18:34.593Z,1019.87
2018-12-12T09:19:34.597Z,1019.92
2018-12-12T09:20:34.605Z,1019.91
2018-12-12T09:21:35.805Z,1019.89
2018-12-12T09:22:34.624Z,1019.92
2018-12-12T09:23:34.609Z,1019.92
2018-12-12T09:24:34.613Z,1019.93
2018-12-12T09:25:34.615Z,1019.91
2018-12-12T09:26:34.623Z,1019.91
2018-12-12T09:27:34.626Z,1019.94
2018-12-12T09:28:34.629Z,1019.95
2018-12-12T09:29:34.633Z,1019.94
2018-12-12T09:30:34.639Z,1019.92
2018-12-12T09:31:34.641Z,1019.94
2018-12-12T09:32:34.643Z,1019.94
2018-12-12T09:33:34.648Z,1019.96
2018-12-12T09:34:34.651Z,1019.97
2018-12-12T09:35:34.665Z,1019.96
2018-12-12T09:36:34.663Z,1020.01
2018-12-12T09:37:34.663Z,1020.00
2018-12-12T09:38:34.671Z,1020.00
2018-12-12T09:39:34.667Z,1020.02
2018-12-12T09:40:34.683Z,1020.00
2018-12-12T09:41:34.679Z,1019.97
2018-12-12T09:42:34.677Z,1019.97
2018-12-12T09:43:34.687Z,1020.02
2018-12-12T09:44:34.695Z,1020.02
2018-12-12T09:45:34.696Z,1019.98
2018-12-12T09:46:34.711Z,1019.97
2018-12-12T09:47:34.690Z,1019.98
2018-12-12T09:48:34.703Z,1020.00
2018-12-12T09:49:34.708Z,1019.96
2018-12-12T09:50:34.713Z,1019.99
2018-12-12T09:51:34.714Z,1019.96
2018-12-12T09:52:34.721Z,1019.96
2018-12-12T09:53:34.721Z,1019.97
2018-12-12T09:54:34.724Z,1019.97
2018-12-12T09:55:34.733Z,1019.96
2018-12-12T09:56:34.733Z,1019.93
2018-12-12T09:57:34.732Z,1019.97
2018-12-12T09:58:34.740Z,1019.97
2018-12-12T09:59:34.743Z,1019.95
2018-12-12T10:00:34.750Z,1019.94
2018-12-12T10:01:34.752Z,1019.94
2018-12-12T10:02:34.768Z,1019.94
2018-12-12T10:03:34.762Z,1019.94
2018-12-12T10:04:34.768Z,1019.95
2018-12-12T10:05:34.780Z,1019.94
2018-12-12T10:06:34.772Z,1019.93
2018-12-12T10:07:34.782Z,1019.92
2018-12-12T10:08:34.775Z,1019.89
2018-12-12T10:09:34.779Z,1019.88
2018-12-12T10:10:34.789Z,1019.92
2018-12-12T10:11:34.789Z,1019.92
2018-12-12T10:12:34.793Z,1019.92
2018-12-12T10:13:34.799Z,1019.90
2018-12-12T10:14:34.812Z,1019.91
2018-12-12T10:15:34.809Z,1019.92
2018-12-12T10:16:34.823Z,1019.90
2018-12-12T10:17:34.817Z,1019.92
2018-12-12T10:18:34.835Z,1019.92
2018-12-12T10:19:34.822Z,1019.90
2018-12-12T10:20:34.833Z,1019.91
2018-12-12T10:21:34.829Z,1019.90
2018-12-12T10:22:34.831Z,1019.93
2018-12-12T10:23:34.837Z,1019.91
2018-12-12T10:24:34.843Z,1019.91
2018-12-12T10:25:34.845Z,1019.91
2018-12-12T10:26:34.845Z,1019.84
2018-12-12T10:27:34.846Z,1019.85
2018-12-12T10:28:34.855Z,1019.83
2018-12-12T10:29:34.859Z,1019.85
2018-12-12T10:30:34.866Z,1019.86
2018-12-12T10:31:34.863Z,1019.88
2018-12-12T10:32:34.871Z,1019.87
2018-12-12T10:33:37.799Z,1019.85
2018-12-12T10:34:34.875Z,1019.84
2018-12-12T10:35:34.882Z,1019.80
2018-12-12T10:36:34.881Z,1019.77
2018-12-12T10:37:34.887Z,1019.75
2018-12-12T10:38:34.901Z,1019.74
2018-12-12T10:39:34.890Z,1019.73
2018-12-12T10:40:34.897Z,1019.73
2018-12-12T10:41:34.899Z,1019.74
2018-12-12T10:42:34.904Z,1019.71
2018-12-12T10:43:34.913Z,1019.70
2018-12-12T10:44:34.914Z,1019.68
2018-12-12T10:45:34.924Z,1019.67
2018-12-12T10:46:34.928Z,1019.64
2018-12-12T10:47:34.916Z,1019.69
2018-12-12T10:48:34.949Z,1019.66
2018-12-12T10:49:34.932Z,1019.70
2018-12-12T10:50:34.937Z,1019.65
2018-12-12T10:51:34.940Z,1019.66
2018-12-12T10:52:34.947Z,1019.69
2018-12-12T10:53:34.950Z,1019.64
2018-12-12T10:54:34.952Z,1019.61
2018-12-12T10:55:34.959Z,1019.61
2018-12-12T10:56:34.958Z,1019.59
2018-12-12T10:57:34.973Z,1019.61
2018-12-12T10:58:34.968Z,1019.59
2018-12-12T10:59:34.986Z,1019.55
2018-12-12T11:00:34.979Z,1019.50
2018-12-12T11:01:34.976Z,1019.47
2018-12-12T11:02:34.982Z,1019.48
2018-12-12T11:03:34.988Z,1019.48
2018-12-12T11:04:34.986Z,1019.48
2018-12-12T11:05:35.031Z,1019.49
2018-12-12T11:06:35.002Z,1019.46
2018-12-12T11:07:35.008Z,1019.48
2018-12-12T11:08:35.004Z,1019.46
2018-12-12T11:09:35.008Z,1019.47
2018-12-12T11:10:35.010Z,1019.45
2018-12-12T11:11:35.013Z,1019.44
2018-12-12T11:12:35.014Z,1019.46
2018-12-12T11:13:35.027Z,1019.39
2018-12-12T11:14:35.027Z,1019.41
2018-12-12T11:15:35.038Z,1019.44
2018-12-12T11:16:35.038Z,1019.42
2018-12-12T11:17:35.052Z,1019.45
2018-12-12T11:18:35.043Z,1019.41
2018-12-12T11:19:35.050Z,1019.40
2018-12-12T11:20:35.050Z,1019.33
2018-12-12T11:21:35.052Z,1019.37
2018-12-12T11:22:35.068Z,1019.40
2018-12-12T11:23:35.062Z,1019.33
2018-12-12T11:24:35.066Z,1019.34
2018-12-12T11:25:35.060Z,1019.37
2018-12-12T11:26:35.075Z,1019.37
2018-12-12T11:27:35.081Z,1019.36
2018-12-12T11:28:35.081Z,1019.32
2018-12-12T11:29:35.090Z,1019.35
2018-12-12T11:30:35.088Z,1019.31
2018-12-12T11:31:35.103Z,1019.30
2018-12-12T11:32:35.100Z,1019.29
2018-12-12T11:33:35.102Z,1019.24
2018-12-12T11:34:35.104Z,1019.29
2018-12-12T11:35:35.108Z,1019.25
2018-12-12T11:36:35.116Z,1019.26
2018-12-12T11:37:35.118Z,1019.21
2018-12-12T11:38:35.120Z,1019.18
2018-12-12T11:39:35.122Z,1019.22
2018-12-12T11:40:35.126Z,1019.22
2018-12-12T11:41:35.132Z,1019.22
2018-12-12T11:42:35.137Z,1019.20
2018-12-12T11:43:35.132Z,1019.22
2018-12-12T11:44:35.144Z,1019.19
2018-12-12T11:45:35.146Z,1019.22
2018-12-12T11:46:35.148Z,1019.19
2018-12-12T11:47:35.158Z,1019.19
2018-12-12T11:48:35.160Z,1019.14
2018-12-12T11:49:35.162Z,1019.15
2018-12-12T11:50:35.164Z,1019.15
2018-12-12T11:51:35.172Z,1019.09
2018-12-12T11:52:35.174Z,1019.05
2018-12-12T11:53:35.180Z,1019.08
2018-12-12T11:54:35.180Z,1019.03
2018-12-12T11:55:35.192Z,1019.04
2018-12-12T11:56:35.199Z,1019.07
2018-12-12T11:57:35.199Z,1019.06
2018-12-12T11:58:35.207Z,1019.07
2018-12-12T11:59:35.211Z,1019.10
2018-12-12T12:00:35.212Z,1019.05
2018-12-12T12:01:35.216Z,1019.08
2018-12-12T12:02:35.683Z,1019.03
2018-12-12T12:03:35.224Z,1019.04
2018-12-12T12:04:35.229Z,1019.03
2018-12-12T12:05:35.230Z,1019.03